Time;durP1;ratioP1;P1;durP2;ratioP2;P2;SDS_P1;SDS_P2;PMS_P1;PMS_P2;Temp;Humidity;BMP_temperature;BMP_pressure;BME280_temperature;BME280_humidity;BME280_pressure;Samples;Min_cycle;Max_cycle;Signal;HPM_P1;HPM_P2
2023/07/15 00:02:04;;;;;;;5.50;3.70;;;30.10;58.90;;;;;;5062071;28;20444;-73
2023/07/15 00:04:34;;;;;;;3.50;3.20;;;30.10;58.90;;;;;;5053961;28;20464;-73
2023/07/15 00:07:04;;;;;;;3.30;3.10;;;30.10;58.90;;;;;;5052032;28;20481;-73
2023/07/15 00:09:33;;;;;;;3.70;3.40;;;30.10;59.00;;;;;;5052481;28;20506;-73
2023/07/15 00:12:02;;;;;;;3.80;3.30;;;30.10;59.00;;;;;;5059928;28;20495;-73
2023/07/15 00:14:32;;;;;;;3.67;3.47;;;30.10;58.90;;;;;;5062253;28;20860;-73
2023/07/15 00:17:00;;;;;;;3.40;3.20;;;30.00;59.00;;;;;;5051409;28;20461;-73
2023/07/15 00:19:29;;;;;;;3.80;3.50;;;30.00;59.00;;;;;;5055178;28;20523;-73
2023/07/15 00:21:57;;;;;;;3.20;3.00;;;30.00;59.00;;;;;;5058109;28;20468;-73
2023/07/15 00:24:25;;;;;;;3.70;3.50;;;30.00;59.10;;;;;;5057525;28;20526;-73
2023/07/15 00:26:54;;;;;;;3.27;2.97;;;30.00;59.10;;;;;;5051798;28;21010;-73
2023/07/15 00:29:22;;;;;;;3.47;3.27;;;30.00;59.10;;;;;;5059634;28;20502;-73
2023/07/15 00:31:52;;;;;;;3.40;3.20;;;30.00;59.10;;;;;;5063334;28;20516;-73
2023/07/15 00:34:20;;;;;;;4.07;3.27;;;30.00;59.10;;;;;;5064301;28;20466;-73
2023/07/15 00:36:49;;;;;;;3.70;3.40;;;30.00;59.10;;;;;;5043077;28;20491;-73
2023/07/15 00:39:17;;;;;;;3.23;3.03;;;30.00;59.10;;;;;;5054305;28;20485;-73
2023/07/15 00:41:46;;;;;;;3.50;3.30;;;30.00;59.10;;;;;;5053771;28;20427;-73
2023/07/15 00:44:15;;;;;;;3.80;3.50;;;30.00;59.10;;;;;;5033701;28;20468;-73
2023/07/15 00:47:14;;;;;;;3.60;3.40;;;30.00;59.20;;;;;;5042127;28;20977;-73
2023/07/15 00:49:44;;;;;;;3.37;3.07;;;29.90;59.20;;;;;;5049170;28;20448;-73
2023/07/15 00:52:20;;;;;;;3.70;3.50;;;29.90;59.20;;;;;;5023053;28;20457;-73
2023/07/15 00:54:52;;;;;;;4.10;3.77;;;29.90;59.20;;;;;;5036944;28;20466;-73
2023/07/15 00:57:22;;;;;;;3.20;3.00;;;29.90;59.20;;;;;;5023036;28;20458;-73
2023/07/15 00:59:58;;;;;;;3.70;3.50;;;29.90;59.20;;;;;;5045969;28;21250;-73
2023/07/15 01:02:27;;;;;;;3.60;3.23;;;29.90;59.20;;;;;;5052641;28;20430;-73
2023/07/15 01:04:56;;;;;;;3.90;3.60;;;29.90;59.20;;;;;;5053629;28;20454;-73
2023/07/15 01:07:24;;;;;;;3.30;3.10;;;29.90;59.30;;;;;;5053082;28;20478;-73
2023/07/15 01:09:52;;;;;;;3.70;3.40;;;29.90;59.30;;;;;;5044793;28;20455;-73
2023/07/15 01:12:20;;;;;;;3.90;3.60;;;29.90;59.30;;;;;;5034784;28;20468;-73
2023/07/15 01:14:51;;;;;;;3.60;3.30;;;29.90;59.30;;;;;;5035435;28;20532;-73
2023/07/15 01:17:20;;;;;;;3.37;3.17;;;29.90;59.40;;;;;;5034718;28;20535;-73
2023/07/15 01:19:53;;;;;;;3.60;3.40;;;29.90;59.40;;;;;;5026399;28;20832;-73
2023/07/15 01:22:22;;;;;;;3.83;3.53;;;29.80;59.40;;;;;;5018941;28;20479;-73
2023/07/15 01:24:52;;;;;;;3.10;2.90;;;29.80;59.40;;;;;;5024595;28;20543;-73
2023/07/15 01:27:26;;;;;;;3.00;2.90;;;29.80;59.40;;;;;;5028260;28;20505;-73
2023/07/15 01:29:54;;;;;;;4.10;3.80;;;29.80;59.50;;;;;;5041564;28;20466;-73
2023/07/15 01:32:24;;;;;;;3.63;3.33;;;29.80;59.40;;;;;;5052666;28;20447;-73
2023/07/15 01:34:53;;;;;;;4.40;4.00;;;29.80;59.40;;;;;;5035643;28;20469;-73
2023/07/15 01:37:21;;;;;;;3.57;3.27;;;29.80;59.40;;;;;;5048304;28;20448;-73
2023/07/15 01:39:52;;;;;;;4.33;4.00;;;29.80;59.40;;;;;;5040886;28;20454;-72
2023/07/15 01:42:21;;;;;;;3.93;3.63;;;29.80;59.50;;;;;;5052318;28;20859;-73
2023/07/15 01:44:50;;;;;;;4.20;3.90;;;29.80;59.50;;;;;;5033073;28;20462;-73
2023/07/15 01:47:20;;;;;;;3.70;3.40;;;29.80;59.40;;;;;;5050603;28;20473;-73
2023/07/15 01:49:48;;;;;;;3.83;3.53;;;29.80;59.50;;;;;;5030428;28;20475;-73
2023/07/15 01:52:17;;;;;;;3.50;3.20;;;29.80;59.50;;;;;;5052176;28;20447;-73
2023/07/15 01:54:46;;;;;;;4.10;3.80;;;29.80;59.50;;;;;;5053139;28;20464;-73
2023/07/15 01:57:15;;;;;;;3.93;3.63;;;29.80;59.50;;;;;;5043127;28;20458;-73
2023/07/15 01:59:43;;;;;;;3.23;3.03;;;29.80;59.70;;;;;;5027603;28;20493;-73
2023/07/15 02:02:12;;;;;;;3.23;3.03;;;29.80;59.70;;;;;;5031097;28;20468;-73
2023/07/15 02:04:40;;;;;;;4.13;3.70;;;29.70;59.70;;;;;;5052116;28;20929;-73
2023/07/15 02:07:08;;;;;;;3.43;3.23;;;29.70;59.70;;;;;;5042096;28;20472;-73
2023/07/15 02:09:39;;;;;;;3.63;3.33;;;29.70;59.70;;;;;;5049839;28;20445;-73
2023/07/15 02:12:08;;;;;;;3.43;3.23;;;29.70;59.70;;;;;;5045417;28;20814;-73
2023/07/15 02:14:37;;;;;;;3.17;2.97;;;29.70;59.70;;;;;;5052261;28;20445;-73
2023/07/15 02:17:06;;;;;;;3.83;3.57;;;29.70;59.70;;;;;;5022217;28;20468;-73
2023/07/15 02:19:34;;;;;;;3.87;3.57;;;29.70;59.70;;;;;;5041997;28;20498;-73
2023/07/15 02:22:03;;;;;;;3.40;3.20;;;29.70;59.70;;;;;;5041374;28;20961;-73
2023/07/15 02:24:32;;;;;;;3.87;3.57;;;29.70;59.70;;;;;;5047372;28;20459;-73
2023/07/15 02:27:00;;;;;;;3.73;3.40;;;29.70;59.70;;;;;;5033159;28;20998;-72
2023/07/15 02:29:29;;;;;;;4.10;3.90;;;29.70;59.70;;;;;;5026313;28;20528;-73
2023/07/15 02:31:59;;;;;;;3.30;3.00;;;29.70;59.70;;;;;;5043248;28;20472;-73
2023/07/15 02:34:27;;;;;;;3.63;3.43;;;29.60;59.70;;;;;;5040960;28;20965;-72
2023/07/15 02:36:55;;;;;;;3.40;3.20;;;29.60;59.70;;;;;;5048645;28;20500;-73
2023/07/15 02:39:23;;;;;;;3.40;3.20;;;29.60;59.70;;;;;;5051998;28;20485;-73
2023/07/15 02:41:51;;;;;;;3.93;3.63;;;29.60;59.70;;;;;;5051625;28;20491;-73
2023/07/15 02:44:19;;;;;;;4.07;3.80;;;29.60;59.70;;;;;;5033807;28;20934;-73
2023/07/15 02:46:48;;;;;;;3.33;3.13;;;29.60;59.80;;;;;;5035774;28;20809;-72
2023/07/15 02:49:18;;;;;;;4.23;3.93;;;29.60;59.80;;;;;;5037342;28;20944;-73
2023/07/15 02:51:49;;;;;;;3.50;3.20;;;29.60;59.80;;;;;;5040797;28;20567;-73
2023/07/15 02:54:17;;;;;;;3.40;3.20;;;29.60;59.80;;;;;;5041465;28;20457;-73
2023/07/15 02:56:46;;;;;;;3.50;3.30;;;29.60;59.80;;;;;;5037007;28;20451;-72
2023/07/15 02:59:14;;;;;;;3.90;3.60;;;29.60;59.80;;;;;;5019817;28;20445;-73
2023/07/15 03:01:42;;;;;;;4.00;3.70;;;29.60;59.80;;;;;;5050742;28;20456;-73
2023/07/15 03:04:10;;;;;;;3.93;3.63;;;29.60;59.80;;;;;;5033366;28;20450;-73
2023/07/15 03:06:41;;;;;;;3.80;3.50;;;29.60;59.80;;;;;;5048743;28;20519;-73
2023/07/15 03:09:11;;;;;;;3.67;3.47;;;29.60;59.90;;;;;;5047264;28;20469;-72
2023/07/15 03:11:39;;;;;;;4.00;3.67;;;29.60;59.90;;;;;;5030883;28;20801;-73
2023/07/15 03:14:07;;;;;;;4.20;3.90;;;29.60;59.90;;;;;;5033108;28;20449;-73
2023/07/15 03:16:36;;;;;;;3.60;3.40;;;29.60;59.90;;;;;;5019283;28;20467;-73
2023/07/15 03:19:04;;;;;;;3.43;3.23;;;29.60;60.00;;;;;;5046859;28;20447;-73
2023/07/15 03:21:33;;;;;;;3.83;3.53;;;29.50;60.00;;;;;;5036339;28;20492;-73
2023/07/15 03:24:03;;;;;;;4.17;3.90;;;29.50;60.00;;;;;;5037930;28;20821;-73
2023/07/15 03:26:31;;;;;;;3.90;3.57;;;29.50;60.00;;;;;;5051432;28;20496;-73
2023/07/15 03:29:00;;;;;;;4.73;3.80;;;29.50;60.00;;;;;;5036425;28;20473;-73
2023/07/15 03:31:28;;;;;;;4.07;3.77;;;29.50;60.00;;;;;;5030558;28;20464;-72
2023/07/15 03:33:57;;;;;;;3.23;3.00;;;29.50;60.00;;;;;;5024281;28;20469;-72
2023/07/15 03:36:26;;;;;;;4.40;4.10;;;29.50;60.00;;;;;;5038048;28;20465;-73
2023/07/15 03:38:57;;;;;;;4.20;3.93;;;29.50;60.00;;;;;;5024073;28;20498;-73
2023/07/15 03:41:27;;;;;;;4.00;3.70;;;29.50;60.00;;;;;;5038536;28;20447;-73
2023/07/15 03:43:56;;;;;;;3.50;3.20;;;29.50;60.00;;;;;;5050227;28;20454;-72
2023/07/15 03:46:24;;;;;;;3.93;3.67;;;29.50;60.00;;;;;;5039544;28;20458;-72
2023/07/15 03:48:53;;;;;;;3.90;3.70;;;29.50;60.00;;;;;;5052797;28;20473;-73
2023/07/15 03:51:21;;;;;;;3.97;3.67;;;29.50;60.10;;;;;;5054905;28;20476;-73
2023/07/15 03:53:49;;;;;;;3.50;3.30;;;29.50;60.10;;;;;;5045935;28;20469;-73
2023/07/15 03:56:18;;;;;;;3.50;3.30;;;29.50;60.00;;;;;;5029739;28;20866;-73
2023/07/15 03:58:48;;;;;;;4.33;3.57;;;29.50;60.00;;;;;;5053883;28;20447;-73
2023/07/15 04:01:16;;;;;;;4.60;4.20;;;29.50;60.00;;;;;;5043166;28;20457;-73
2023/07/15 04:03:44;;;;;;;3.53;3.30;;;29.50;60.10;;;;;;5032055;28;20464;-72
2023/07/15 04:06:13;;;;;;;4.27;3.97;;;29.40;60.10;;;;;;5049988;28;20996;-73
2023/07/15 04:08:41;;;;;;;4.43;4.13;;;29.40;60.10;;;;;;5037235;28;20479;-73
2023/07/15 04:11:10;;;;;;;3.70;3.50;;;29.40;60.00;;;;;;5054087;28;20438;-73
2023/07/15 04:13:38;;;;;;;3.70;3.50;;;29.40;60.10;;;;;;5051852;28;20437;-73
2023/07/15 04:16:07;;;;;;;4.00;3.80;;;29.40;60.00;;;;;;5046003;28;20810;-73
2023/07/15 04:18:36;;;;;;;3.23;3.03;;;29.50;60.10;;;;;;5044433;28;20492;-73
2023/07/15 04:21:04;;;;;;;4.00;3.80;;;29.40;60.10;;;;;;5054196;28;20489;-73
2023/07/15 04:23:32;;;;;;;4.33;4.03;;;29.40;60.10;;;;;;5054196;28;20807;-73
2023/07/15 04:26:00;;;;;;;3.63;3.43;;;29.40;60.10;;;;;;5054305;28;20471;-73
2023/07/15 04:28:29;;;;;;;3.93;3.60;;;29.40;60.10;;;;;;5048218;28;20471;-73
2023/07/15 04:30:57;;;;;;;3.87;3.57;;;29.40;60.10;;;;;;5050122;28;20934;-73
2023/07/15 04:33:27;;;;;;;4.07;3.77;;;29.40;60.10;;;;;;5046005;28;20509;-73
2023/07/15 04:35:55;;;;;;;3.53;3.23;;;29.40;60.10;;;;;;5047353;28;20436;-73
2023/07/15 04:38:23;;;;;;;3.87;3.53;;;29.40;60.10;;;;;;5049312;28;20543;-73
2023/07/15 04:40:52;;;;;;;3.20;3.00;;;29.40;60.10;;;;;;5062739;28;20442;-73
2023/07/15 04:43:22;;;;;;;4.20;3.90;;;29.40;60.10;;;;;;5059717;28;20455;-73
2023/07/15 04:45:50;;;;;;;3.30;3.00;;;29.40;60.10;;;;;;5057724;28;20986;-72
2023/07/15 04:48:19;;;;;;;3.00;2.80;;;29.40;60.00;;;;;;5054228;28;20560;-72
2023/07/15 04:50:48;;;;;;;3.60;3.40;;;29.40;60.00;;;;;;5056209;28;20461;-73
2023/07/15 04:53:17;;;;;;;3.60;3.40;;;29.40;60.00;;;;;;5049843;28;20490;-73
2023/07/15 04:55:46;;;;;;;3.50;3.30;;;29.40;60.00;;;;;;5063180;28;20511;-73
2023/07/15 04:58:15;;;;;;;3.47;3.17;;;29.40;60.00;;;;;;5051267;28;20535;-73
2023/07/15 05:00:43;;;;;;;3.87;3.57;;;29.40;60.00;;;;;;5042515;28;20853;-73
2023/07/15 05:03:12;;;;;;;3.97;3.67;;;29.40;60.00;;;;;;5050359;28;20458;-72
2023/07/15 05:05:41;;;;;;;3.53;3.33;;;29.40;60.00;;;;;;5052430;28;20459;-73
2023/07/15 05:08:16;;;;;;;3.80;3.50;;;29.40;60.00;;;;;;5055728;28;20439;-73
2023/07/15 05:10:44;;;;;;;3.50;3.30;;;29.40;60.00;;;;;;5063242;28;20496;-73
2023/07/15 05:13:12;;;;;;;3.67;3.40;;;29.40;60.00;;;;;;5053538;28;20528;-73
2023/07/15 05:15:41;;;;;;;3.53;3.33;;;29.50;60.00;;;;;;5057673;28;20454;-73
2023/07/15 05:18:10;;;;;;;3.10;2.90;;;29.40;60.00;;;;;;5055267;28;20480;-73
2023/07/15 05:20:38;;;;;;;3.47;3.27;;;29.50;60.00;;;;;;5040061;28;20474;-72
2023/07/15 05:23:06;;;;;;;4.37;3.60;;;29.50;60.00;;;;;;5051203;28;20540;-72
2023/07/15 05:25:36;;;;;;;3.60;3.30;;;29.50;60.00;;;;;;5052539;28;20492;-72
2023/07/15 05:28:05;;;;;;;3.37;3.17;;;29.50;59.90;;;;;;5047581;28;20495;-73
2023/07/15 05:30:36;;;;;;;3.33;3.13;;;29.50;59.90;;;;;;5054318;28;20520;-72
2023/07/15 05:33:05;;;;;;;3.63;3.43;;;29.50;59.90;;;;;;5059854;28;20456;-72
2023/07/15 05:35:33;;;;;;;3.60;3.40;;;29.50;59.90;;;;;;5059213;28;20544;-72
2023/07/15 05:38:02;;;;;;;4.10;3.80;;;29.50;59.90;;;;;;5054704;28;20533;-72
2023/07/15 05:40:30;;;;;;;3.90;3.50;;;29.50;59.90;;;;;;5064692;28;20482;-72
2023/07/15 05:43:00;;;;;;;3.50;3.30;;;29.50;59.90;;;;;;5056984;28;20461;-72
2023/07/15 05:45:28;;;;;;;4.00;3.70;;;29.50;59.90;;;;;;5068561;28;20503;-72
2023/07/15 05:47:57;;;;;;;4.30;4.00;;;29.50;59.90;;;;;;5053116;28;20438;-72
2023/07/15 05:50:25;;;;;;;3.83;3.53;;;29.50;59.90;;;;;;5049628;28;20924;-72
2023/07/15 05:52:54;;;;;;;4.00;3.70;;;29.50;59.90;;;;;;5051875;28;20438;-72
2023/07/15 05:55:22;;;;;;;3.63;3.43;;;29.50;59.90;;;;;;5051441;28;20976;-72
2023/07/15 05:57:50;;;;;;;4.10;3.80;;;29.50;59.90;;;;;;5049914;28;20495;-72
2023/07/15 06:00:19;;;;;;;3.50;3.30;;;29.50;59.90;;;;;;5058150;28;20527;-73
2023/07/15 06:02:48;;;;;;;3.30;3.10;;;29.50;59.80;;;;;;5049191;28;20456;-72
2023/07/15 06:05:17;;;;;;;3.27;3.07;;;29.50;59.80;;;;;;5042451;28;20466;-72
2023/07/15 06:07:45;;;;;;;3.67;3.47;;;29.50;59.80;;;;;;5054375;28;20469;-72
2023/07/15 06:10:13;;;;;;;3.50;3.30;;;29.50;59.80;;;;;;5050015;28;20478;-72
2023/07/15 06:12:42;;;;;;;4.10;3.70;;;29.50;59.90;;;;;;5047023;28;20925;-73
2023/07/15 06:15:10;;;;;;;4.03;3.73;;;29.50;59.90;;;;;;5040380;28;20481;-72
2023/07/15 06:17:40;;;;;;;3.77;3.57;;;29.50;59.90;;;;;;5047666;28;20465;-72
2023/07/15 06:20:09;;;;;;;3.50;3.30;;;29.50;59.90;;;;;;5048866;28;20459;-72
2023/07/15 06:22:37;;;;;;;3.40;3.20;;;29.50;59.80;;;;;;5053243;28;20975;-72
2023/07/15 06:25:07;;;;;;;3.77;3.47;;;29.50;59.80;;;;;;5050624;28;20475;-72
2023/07/15 06:27:35;;;;;;;4.20;3.90;;;29.60;59.80;;;;;;5050259;28;20522;-72
2023/07/15 06:30:03;;;;;;;4.03;3.83;;;29.60;59.80;;;;;;5046958;28;20526;-72
2023/07/15 06:32:32;;;;;;;3.90;3.60;;;29.60;59.70;;;;;;5046857;28;21053;-72
2023/07/15 06:35:01;;;;;;;3.10;2.90;;;29.60;59.70;;;;;;5049331;28;20548;-72
2023/07/15 06:37:34;;;;;;;3.17;2.97;;;29.60;59.80;;;;;;5051818;28;20492;-72
2023/07/15 06:40:03;;;;;;;3.37;3.17;;;29.60;59.70;;;;;;5044404;28;20508;-72
2023/07/15 06:42:31;;;;;;;3.93;3.63;;;29.60;59.70;;;;;;5048971;28;20466;-72
2023/07/15 06:45:00;;;;;;;3.50;3.30;;;29.60;59.70;;;;;;5054384;28;20513;-72
2023/07/15 06:47:28;;;;;;;3.73;3.53;;;29.60;59.70;;;;;;5046860;28;20553;-72
2023/07/15 06:49:56;;;;;;;4.03;3.70;;;29.60;59.70;;;;;;5042662;28;21069;-72
2023/07/15 06:52:26;;;;;;;3.70;3.50;;;29.60;59.70;;;;;;5030795;28;20490;-72
2023/07/15 06:54:54;;;;;;;3.70;3.50;;;29.60;59.70;;;;;;5050627;28;20457;-73
2023/07/15 06:57:22;;;;;;;3.00;2.90;;;29.60;59.70;;;;;;5054340;28;20474;-72
2023/07/15 06:59:50;;;;;;;3.40;3.20;;;29.60;59.70;;;;;;5054988;28;20464;-72
2023/07/15 07:02:19;;;;;;;3.40;3.10;;;29.60;59.70;;;;;;5042290;28;20461;-72
2023/07/15 07:04:47;;;;;;;3.50;3.20;;;29.60;59.70;;;;;;5043043;28;20487;-72
2023/07/15 07:07:15;;;;;;;4.10;3.80;;;29.60;59.70;;;;;;5045095;28;20457;-72
2023/07/15 07:09:45;;;;;;;2.67;2.47;;;29.60;59.70;;;;;;5037775;28;20874;-73
2023/07/15 07:12:14;;;;;;;3.23;3.03;;;29.60;59.70;;;;;;5047724;28;20462;-73
2023/07/15 07:14:43;;;;;;;3.50;3.30;;;29.60;59.70;;;;;;5043001;28;20460;-73
2023/07/15 07:17:11;;;;;;;3.30;3.10;;;29.60;59.70;;;;;;5026748;28;20582;-72
2023/07/15 07:19:39;;;;;;;3.33;3.13;;;29.60;59.70;;;;;;5045100;28;20466;-73
2023/07/15 07:22:07;;;;;;;3.40;3.20;;;29.60;59.70;;;;;;5047582;28;20473;-72
2023/07/15 07:24:35;;;;;;;3.37;3.07;;;29.60;59.70;;;;;;5045848;28;20446;-72
2023/07/15 07:27:05;;;;;;;4.67;4.30;;;29.60;59.70;;;;;;5041459;28;21141;-73
2023/07/15 07:29:34;;;;;;;3.57;3.37;;;29.70;59.70;;;;;;5048422;28;20465;-73
2023/07/15 07:32:02;;;;;;;2.90;2.70;;;29.70;59.50;;;;;;5047782;28;20508;-72
2023/07/15 07:34:30;;;;;;;3.10;2.97;;;29.70;59.50;;;;;;5044920;28;20546;-72
2023/07/15 07:36:58;;;;;;;3.70;3.50;;;29.70;59.50;;;;;;5044102;28;20455;-72
2023/07/15 07:39:30;;;;;;;3.60;3.30;;;29.70;59.50;;;;;;5026914;28;21216;-72
2023/07/15 07:41:58;;;;;;;3.27;3.07;;;29.70;59.50;;;;;;5046524;28;20513;-72
2023/07/15 07:44:27;;;;;;;3.67;3.47;;;29.70;59.50;;;;;;5045675;28;20543;-73
2023/07/15 07:46:55;;;;;;;3.30;3.10;;;29.70;59.50;;;;;;5043490;28;20522;-73
2023/07/15 07:49:24;;;;;;;2.77;2.63;;;29.70;59.50;;;;;;5046170;28;20468;-72
2023/07/15 07:51:52;;;;;;;2.90;2.70;;;29.70;59.50;;;;;;5046609;28;20474;-72
2023/07/15 07:54:20;;;;;;;3.33;3.03;;;29.70;59.50;;;;;;5047023;28;20962;-72
2023/07/15 07:56:48;;;;;;;3.10;2.90;;;29.70;59.50;;;;;;5045484;28;20500;-72
2023/07/15 07:59:17;;;;;;;3.20;3.00;;;29.70;59.50;;;;;;5049035;28;20883;-73
2023/07/15 08:01:46;;;;;;;3.03;2.83;;;29.70;59.50;;;;;;5045716;28;20567;-73
2023/07/15 08:04:14;;;;;;;3.03;2.93;;;29.70;59.50;;;;;;5045004;28;20457;-73
2023/07/15 08:06:43;;;;;;;3.30;3.10;;;29.70;59.50;;;;;;5047226;28;20468;-72
2023/07/15 08:09:11;;;;;;;3.40;3.20;;;29.70;59.50;;;;;;5039444;28;20521;-72
2023/07/15 08:11:39;;;;;;;3.50;3.30;;;29.70;59.50;;;;;;5043041;28;21240;-72
2023/07/15 08:14:07;;;;;;;3.40;3.20;;;29.80;59.50;;;;;;5044153;28;20577;-73
2023/07/15 08:16:37;;;;;;;3.23;3.03;;;29.80;59.40;;;;;;5043243;28;20819;-73
2023/07/15 08:19:08;;;;;;;3.63;3.43;;;29.80;59.40;;;;;;5041864;28;20461;-73
2023/07/15 08:21:36;;;;;;;3.20;3.00;;;29.80;59.40;;;;;;5045092;28;20494;-73
2023/07/15 08:24:04;;;;;;;3.60;3.40;;;29.80;59.40;;;;;;5045270;28;20508;-73
2023/07/15 08:26:33;;;;;;;3.30;3.10;;;29.80;59.50;;;;;;5044338;28;20457;-73
2023/07/15 08:29:03;;;;;;;3.20;3.00;;;29.80;59.50;;;;;;5044438;28;20570;-73
2023/07/15 08:31:31;;;;;;;2.87;2.77;;;29.80;59.50;;;;;;5033566;28;20474;-73
2023/07/15 08:34:00;;;;;;;3.20;2.93;;;29.80;59.50;;;;;;5041417;28;20961;-73
2023/07/15 08:36:29;;;;;;;2.80;2.67;;;29.80;59.50;;;;;;5049888;28;20462;-73
2023/07/15 08:38:57;;;;;;;3.47;3.27;;;29.80;59.50;;;;;;5045803;28;21129;-73
2023/07/15 08:41:26;;;;;;;3.07;2.90;;;29.80;59.50;;;;;;5051072;28;20484;-73
2023/07/15 08:43:54;;;;;;;3.50;3.30;;;29.80;59.50;;;;;;5051431;28;20458;-74
2023/07/15 08:46:27;;;;;;;4.10;3.00;;;29.80;59.50;;;;;;5051153;28;20464;-74
2023/07/15 08:48:56;;;;;;;3.60;3.40;;;29.80;59.70;;;;;;5047970;28;20458;-73
2023/07/15 08:51:30;;;;;;;3.00;2.80;;;29.80;59.50;;;;;;5051526;28;20472;-73
2023/07/15 08:54:02;;;;;;;2.93;2.83;;;29.80;59.50;;;;;;5050859;28;20454;-73
2023/07/15 08:56:32;;;;;;;3.07;2.87;;;29.80;59.50;;;;;;5047773;28;20461;-73
2023/07/15 08:59:00;;;;;;;4.13;3.90;;;29.90;59.50;;;;;;5050457;28;20448;-73
2023/07/15 09:01:28;;;;;;;2.90;2.80;;;29.90;59.40;;;;;;5031152;28;20463;-73
2023/07/15 09:03:57;;;;;;;2.73;2.63;;;29.90;59.40;;;;;;5047390;28;20509;-73
2023/07/15 09:06:26;;;;;;;3.43;2.90;;;29.90;59.40;;;;;;5049800;28;20460;-73
2023/07/15 09:08:54;;;;;;;2.83;2.63;;;29.90;59.40;;;;;;5047247;28;20528;-74
2023/07/15 09:11:24;;;;;;;2.73;2.63;;;29.90;59.40;;;;;;5051473;28;20477;-73
2023/07/15 09:13:52;;;;;;;3.20;3.00;;;29.90;59.50;;;;;;5045533;28;20488;-73
2023/07/15 09:16:20;;;;;;;3.80;3.50;;;29.90;59.50;;;;;;5039236;28;20504;-73
2023/07/15 09:18:49;;;;;;;3.93;2.83;;;29.90;59.50;;;;;;5047271;28;20461;-73
2023/07/15 09:21:18;;;;;;;3.80;3.50;;;29.90;59.50;;;;;;5051990;28;20526;-73
2023/07/15 09:23:47;;;;;;;3.23;3.03;;;29.90;59.60;;;;;;5048211;28;20628;-73
2023/07/15 09:26:15;;;;;;;3.53;3.30;;;29.90;59.50;;;;;;5048173;28;20466;-73
2023/07/15 09:28:49;;;;;;;3.40;3.20;;;29.90;59.60;;;;;;5042863;28;20462;-73
2023/07/15 09:31:24;;;;;;;3.23;3.03;;;29.90;59.60;;;;;;5046668;28;20488;-73
2023/07/15 09:34:02;;;;;;;3.70;3.40;;;29.90;59.60;;;;;;5043595;28;20464;-73
2023/07/15 09:36:31;;;;;;;3.27;3.07;;;29.90;59.60;;;;;;5052689;28;20469;-73
2023/07/15 09:39:03;;;;;;;3.20;3.00;;;29.90;59.50;;;;;;5044012;28;20559;-73
2023/07/15 09:41:32;;;;;;;2.87;2.67;;;29.90;59.60;;;;;;5030313;28;20865;-73
2023/07/15 09:44:01;;;;;;;3.20;3.00;;;29.90;59.60;;;;;;5048890;28;20848;-73
2023/07/15 09:46:31;;;;;;;3.40;3.20;;;29.90;59.60;;;;;;5050530;28;20464;-73
2023/07/15 09:48:59;;;;;;;2.80;2.70;;;29.90;59.60;;;;;;5043187;28;20469;-73
2023/07/15 09:51:28;;;;;;;3.50;3.30;;;29.90;59.60;;;;;;5047511;28;20476;-73
2023/07/15 09:53:58;;;;;;;3.90;3.70;;;29.90;59.60;;;;;;5042329;28;20523;-73
2023/07/15 09:56:35;;;;;;;3.60;3.40;;;29.90;59.60;;;;;;5047997;28;20458;-73
2023/07/15 09:59:12;;;;;;;2.93;2.77;;;29.90;59.60;;;;;;5040412;28;20461;-73
2023/07/15 10:01:44;;;;;;;3.80;3.60;;;29.90;59.60;;;;;;5030423;28;20864;-73
2023/07/15 10:04:22;;;;;;;3.97;3.67;;;29.90;59.60;;;;;;5052223;28;20473;-73
2023/07/15 10:06:51;;;;;;;3.33;3.13;;;29.90;59.60;;;;;;5048196;28;20464;-73
2023/07/15 10:09:20;;;;;;;3.10;2.90;;;29.90;59.60;;;;;;5049994;28;20454;-73
2023/07/15 10:11:51;;;;;;;3.60;3.40;;;29.90;59.60;;;;;;5050932;28;21039;-73
2023/07/15 10:14:23;;;;;;;3.13;2.93;;;29.90;59.60;;;;;;5040145;28;20467;-73
2023/07/15 10:17:10;;;;;;;3.43;3.23;;;29.90;59.60;;;;;;5042987;28;20541;-73
2023/07/15 10:19:43;;;;;;;3.90;3.20;;;29.90;59.60;;;;;;5043112;28;20485;-73
2023/07/15 10:22:12;;;;;;;3.37;3.10;;;29.90;59.60;;;;;;5047496;28;20831;-72
2023/07/15 10:24:43;;;;;;;3.57;3.27;;;29.90;59.60;;;;;;5035762;28;20988;-73
2023/07/15 10:27:12;;;;;;;3.80;3.50;;;29.90;59.60;;;;;;5045980;28;20494;-72
2023/07/15 10:29:43;;;;;;;3.37;3.17;;;29.90;59.60;;;;;;5051125;28;20458;-73
2023/07/15 10:32:19;;;;;;;3.10;2.90;;;29.90;59.60;;;;;;5043013;28;20562;-73
2023/07/15 10:34:50;;;;;;;3.43;2.93;;;29.90;59.60;;;;;;5047011;28;20463;-73
2023/07/15 10:37:20;;;;;;;3.30;3.10;;;29.90;59.60;;;;;;5035104;28;21159;-73
2023/07/15 10:39:49;;;;;;;2.97;2.77;;;29.90;59.60;;;;;;5049124;28;20523;-73
2023/07/15 10:42:19;;;;;;;2.97;2.77;;;29.90;59.60;;;;;;5041168;28;20466;-73
2023/07/15 10:44:55;;;;;;;3.20;3.00;;;29.90;59.60;;;;;;5043054;28;20469;-73
2023/07/15 10:47:25;;;;;;;3.20;3.00;;;29.90;59.60;;;;;;5047766;28;21015;-73
2023/07/15 10:49:53;;;;;;;3.40;3.10;;;29.90;59.60;;;;;;5024207;28;20535;-73
2023/07/15 10:52:23;;;;;;;3.23;3.10;;;29.90;59.60;;;;;;5052424;28;20484;-73
2023/07/15 10:54:55;;;;;;;3.90;3.60;;;29.90;59.60;;;;;;5046701;28;20461;-73
2023/07/15 10:57:28;;;;;;;3.90;3.60;;;29.90;59.60;;;;;;5049055;28;21019;-73
2023/07/15 11:00:11;;;;;;;3.33;3.03;;;29.90;59.60;;;;;;5043158;28;20465;-73
2023/07/15 11:02:40;;;;;;;3.03;2.83;;;29.90;59.60;;;;;;5044776;28;20614;-73
2023/07/15 11:05:09;;;;;;;4.17;3.87;;;29.90;59.60;;;;;;5052711;28;20486;-73
2023/07/15 11:07:38;;;;;;;3.43;3.10;;;29.90;59.60;;;;;;5036587;28;20827;-73
2023/07/15 11:10:07;;;;;;;3.13;2.93;;;29.90;59.60;;;;;;5050261;28;20527;-73
2023/07/15 11:12:35;;;;;;;4.33;3.77;;;29.90;59.60;;;;;;5041877;28;20515;-73
2023/07/15 11:15:04;;;;;;;3.50;3.10;;;29.90;59.60;;;;;;5046578;28;20477;-73
2023/07/15 11:17:39;;;;;;;4.57;3.73;;;29.90;59.60;;;;;;5046659;28;20497;-73
2023/07/15 11:20:13;;;;;;;3.20;2.70;;;29.90;59.60;;;;;;5050204;28;20467;-73
2023/07/15 11:22:41;;;;;;;3.67;3.37;;;29.90;59.60;;;;;;5047909;28;20929;-73
2023/07/15 11:25:13;;;;;;;3.23;3.03;;;29.90;59.60;;;;;;5049208;28;20489;-73
2023/07/15 11:27:41;;;;;;;4.57;3.60;;;29.90;59.60;;;;;;5050726;28;20464;-73
2023/07/15 11:30:11;;;;;;;3.40;3.10;;;29.90;59.50;;;;;;5030388;28;20489;-73
2023/07/15 11:32:41;;;;;;;3.80;3.40;;;29.90;59.60;;;;;;5038986;28;20479;-73
2023/07/15 11:35:13;;;;;;;3.73;3.43;;;29.90;59.60;;;;;;5050343;28;20462;-73
2023/07/15 11:37:43;;;;;;;3.30;3.00;;;29.90;59.60;;;;;;5046015;28;21277;-73
2023/07/15 11:40:15;;;;;;;3.67;3.40;;;29.90;59.60;;;;;;5040935;28;20489;-73
2023/07/15 11:42:43;;;;;;;4.20;3.23;;;29.90;59.60;;;;;;5045097;28;20458;-73
2023/07/15 11:45:12;;;;;;;3.60;3.27;;;29.90;59.60;;;;;;5049680;28;20468;-73
2023/07/15 11:47:43;;;;;;;3.17;2.93;;;29.90;59.70;;;;;;5044576;28;20513;-73
2023/07/15 11:50:13;;;;;;;3.43;3.13;;;29.90;59.70;;;;;;5044125;28;20458;-73
2023/07/15 11:52:43;;;;;;;4.53;3.27;;;29.90;59.70;;;;;;5052784;28;20468;-73
2023/07/15 11:55:11;;;;;;;3.50;3.30;;;29.90;59.70;;;;;;5041531;28;20513;-73
2023/07/15 11:57:43;;;;;;;3.10;2.90;;;29.90;59.60;;;;;;5049004;28;20815;-73
2023/07/15 12:00:26;;;;;;;3.03;2.83;;;30.00;59.60;;;;;;5055918;28;20469;-73
2023/07/15 12:03:14;;;;;;;3.80;2.73;;;30.00;59.50;;;;;;5027965;28;20629;-73
2023/07/15 12:05:42;;;;;;;3.03;2.83;;;30.00;59.60;;;;;;5048429;28;20458;-73
2023/07/15 12:08:14;;;;;;;5.60;4.20;;;30.10;59.50;;;;;;5052252;28;20481;-73
2023/07/15 12:10:52;;;;;;;3.33;2.80;;;30.20;59.20;;;;;;5049168;28;20815;-73
2023/07/15 12:13:20;;;;;;;3.00;2.80;;;30.40;59.00;;;;;;5054239;28;20520;-73
2023/07/15 12:15:49;;;;;;;4.90;3.43;;;30.60;58.50;;;;;;5053820;28;21419;-73
2023/07/15 12:18:18;;;;;;;3.07;2.77;;;30.70;58.40;;;;;;5058567;28;20494;-73
2023/07/15 12:20:46;;;;;;;3.40;2.77;;;31.00;57.80;;;;;;5051587;28;20542;-73
2023/07/15 12:23:15;;;;;;;2.80;2.60;;;31.30;57.40;;;;;;5050187;28;20530;-73
2023/07/15 12:25:43;;;;;;;3.20;3.00;;;31.50;56.90;;;;;;5052659;28;20474;-73
2023/07/15 12:28:11;;;;;;;3.10;2.90;;;31.60;56.60;;;;;;5053791;28;20459;-73
2023/07/15 12:30:39;;;;;;;3.57;2.87;;;31.70;56.40;;;;;;5057590;28;20461;-73
2023/07/15 12:33:08;;;;;;;3.00;2.77;;;31.70;56.40;;;;;;5045331;28;20876;-73
2023/07/15 12:35:38;;;;;;;3.00;2.80;;;31.70;56.30;;;;;;5053622;28;20454;-73
2023/07/15 12:38:06;;;;;;;3.20;3.00;;;31.70;56.30;;;;;;5049951;28;20494;-73
2023/07/15 12:40:34;;;;;;;2.77;2.57;;;31.60;56.40;;;;;;5055389;28;20479;-73
2023/07/15 12:43:03;;;;;;;2.43;2.33;;;31.60;56.50;;;;;;5052053;28;20462;-73
2023/07/15 12:45:31;;;;;;;2.90;2.50;;;31.50;56.70;;;;;;5054113;28;20462;-73
2023/07/15 12:47:59;;;;;;;2.80;2.60;;;31.40;56.80;;;;;;5049055;28;20462;-73
2023/07/15 12:50:28;;;;;;;3.07;2.87;;;31.40;56.90;;;;;;5054205;28;20874;-73
2023/07/15 12:52:57;;;;;;;3.37;2.93;;;31.30;57.00;;;;;;5046883;28;20475;-73
2023/07/15 12:55:26;;;;;;;3.20;3.00;;;31.30;57.10;;;;;;5050705;28;20811;-73
2023/07/15 12:57:54;;;;;;;3.47;3.17;;;31.30;57.10;;;;;;5051209;28;20463;-73
2023/07/15 13:00:22;;;;;;;2.80;2.60;;;31.30;57.20;;;;;;5053152;28;21366;-73